createdAt,value
2023-03-27T00:00:56.277Z,101647.19
2023-03-27T00:03:26.456Z,101651.84
2023-03-27T00:06:25.494Z,101656.50
2023-03-27T00:08:51.956Z,101661.03
2023-03-27T00:11:19.911Z,101655.22
2023-03-27T00:13:50.312Z,101654.22
2023-03-27T00:16:16.994Z,101662.53
2023-03-27T00:18:43.379Z,101659.63
2023-03-27T00:21:09.674Z,101659.44
2023-03-27T00:23:35.943Z,101657.88
2023-03-27T00:26:02.270Z,101664.00
2023-03-27T00:28:29.306Z,101673.16
2023-03-27T00:30:57.167Z,101685.00
2023-03-27T00:33:36.106Z,101684.56
2023-03-27T00:36:05.009Z,101688.84
2023-03-27T00:38:31.670Z,101694.47
2023-03-27T00:41:00.819Z,101692.81
2023-03-27T00:43:32.130Z,101696.66
2023-03-27T00:46:02.550Z,101689.06
2023-03-27T00:48:33.072Z,101702.75
2023-03-27T00:51:02.848Z,101698.69
2023-03-27T00:53:30.151Z,101711.38
2023-03-27T00:56:00.458Z,101707.56
2023-03-27T00:58:31.705Z,101713.97
2023-03-27T01:00:58.605Z,101713.25
2023-03-27T01:03:30.722Z,101722.38
2023-03-27T01:06:04.492Z,101719.47
2023-03-27T01:08:33.328Z,101718.81
2023-03-27T01:11:46.187Z,101715.66
2023-03-27T01:14:34.142Z,101730.06
2023-03-27T01:17:47.490Z,101733.00
2023-03-27T01:20:44.895Z,101747.63
2023-03-27T01:24:00.555Z,101749.66
2023-03-27T01:26:37.264Z,101756.09
2023-03-27T01:29:22.405Z,101755.94
2023-03-27T01:32:09.611Z,101761.38
2023-03-27T01:35:01.297Z,101760.88
2023-03-27T01:37:50.108Z,101761.44
2023-03-27T01:40:26.663Z,101759.53
2023-03-27T01:43:09.004Z,101764.97
2023-03-27T01:46:06.520Z,101765.69
2023-03-27T01:48:43.797Z,101773.88
2023-03-27T01:51:20.396Z,101771.41
2023-03-27T01:54:00.051Z,101774.28
2023-03-27T01:56:34.993Z,101761.31
2023-03-27T01:59:08.821Z,101773.94
2023-03-27T02:01:41.966Z,101771.34
2023-03-27T02:04:19.099Z,101776.78
2023-03-27T02:06:51.808Z,101779.28
2023-03-27T02:09:20.470Z,101789.91
2023-03-27T02:11:56.000Z,101790.06
2023-03-27T02:14:31.445Z,101797.63
2023-03-27T02:17:01.888Z,101798.56
2023-03-27T02:19:37.449Z,101804.41
2023-03-27T02:22:08.754Z,101802.63
2023-03-27T02:24:35.143Z,101813.78
2023-03-27T02:27:12.327Z,101809.97
2023-03-27T02:30:05.377Z,101815.78
2023-03-27T02:32:57.667Z,101819.94
2023-03-27T02:35:41.275Z,101829.22
2023-03-27T02:38:19.385Z,101818.88
2023-03-27T02:41:13.500Z,101830.75
2023-03-27T02:44:10.599Z,101835.25
2023-03-27T02:46:46.721Z,101828.66
2023-03-27T02:49:21.648Z,101828.13
2023-03-27T02:51:53.036Z,101841.91
2023-03-27T02:54:24.612Z,101840.28
2023-03-27T02:56:58.498Z,101840.44
2023-03-27T02:59:36.054Z,101838.78
2023-03-27T03:02:16.243Z,101838.88
2023-03-27T03:04:46.844Z,101846.78
2023-03-27T03:07:14.340Z,101846.03
2023-03-27T03:09:48.708Z,101849.69
2023-03-27T03:12:15.113Z,101860.34
2023-03-27T03:14:45.749Z,101859.66
2023-03-27T03:17:16.077Z,101867.84
2023-03-27T03:19:44.802Z,101873.06
2023-03-27T03:22:17.958Z,101874.06
2023-03-27T03:24:44.267Z,101876.66
2023-03-27T03:27:10.982Z,101883.94
2023-03-27T03:29:41.553Z,101886.47
2023-03-27T03:32:07.838Z,101899.25
2023-03-27T03:34:36.258Z,101891.47
2023-03-27T03:37:02.551Z,101902.25
2023-03-27T03:39:29.788Z,101909.28
2023-03-27T03:41:58.885Z,101909.22
2023-03-27T03:44:30.812Z,101912.66
2023-03-27T03:46:57.230Z,101914.47
2023-03-27T03:49:24.722Z,101921.59
2023-03-27T03:52:03.765Z,101928.72
2023-03-27T03:54:30.997Z,101935.06
2023-03-27T03:56:59.830Z,101936.97
2023-03-27T03:59:26.296Z,101934.50
2023-03-27T04:01:54.721Z,101936.41
2023-03-27T04:04:21.064Z,101931.09
2023-03-27T04:06:47.411Z,101938.25
2023-03-27T04:09:13.768Z,101937.44
2023-03-27T04:11:42.539Z,101949.94
2023-03-27T04:14:10.050Z,101948.34
2023-03-27T04:16:36.512Z,101952.91
2023-03-27T04:19:05.267Z,101965.31
2023-03-27T04:21:31.876Z,101954.75
2023-03-27T04:23:58.195Z,101948.28
2023-03-27T04:26:27.420Z,101966.88
2023-03-27T04:28:54.122Z,101961.38
2023-03-27T04:31:23.368Z,101964.84
2023-03-27T04:33:49.910Z,101961.63
2023-03-27T04:36:18.872Z,101966.81
2023-03-27T04:38:46.472Z,101970.25
2023-03-27T04:41:15.024Z,101983.69
2023-03-27T04:43:41.499Z,101987.25
2023-03-27T04:46:08.599Z,101996.03
2023-03-27T04:48:35.522Z,101999.44
2023-03-27T04:51:01.862Z,101994.00
2023-03-27T04:53:30.712Z,102011.91
2023-03-27T04:55:57.088Z,102008.50
2023-03-27T04:58:23.811Z,102001.47
2023-03-27T05:00:50.274Z,102005.06
2023-03-27T05:03:20.233Z,102007.09
2023-03-27T05:05:47.822Z,102021.28
2023-03-27T05:08:14.171Z,102006.28
2023-03-27T05:10:40.480Z,102010.75
2023-03-27T05:13:14.684Z,102016.13
2023-03-27T05:15:44.370Z,102017.13
2023-03-27T05:18:10.770Z,102023.25
2023-03-27T05:20:39.994Z,102030.56
2023-03-27T05:23:09.020Z,102026.22
2023-03-27T05:25:38.653Z,102028.06
2023-03-27T05:28:05.162Z,102029.03
2023-03-27T05:30:31.617Z,102036.13
2023-03-27T05:32:58.008Z,102035.31
2023-03-27T05:35:27.240Z,102046.72
2023-03-27T05:37:55.134Z,102043.13
2023-03-27T05:40:26.191Z,102048.38
2023-03-27T05:42:57.115Z,102051.94
2023-03-27T05:45:27.696Z,102043.88
2023-03-27T05:48:01.131Z,102044.63
2023-03-27T05:50:30.428Z,102054.47
2023-03-27T05:53:06.812Z,102054.47
2023-03-27T05:55:33.785Z,102060.56
2023-03-27T05:58:00.187Z,102064.88
2023-03-27T06:00:27.070Z,102061.19
2023-03-27T06:02:59.860Z,102058.34
2023-03-27T06:05:26.900Z,102059.03
2023-03-27T06:07:53.754Z,102059.84
2023-03-27T06:10:20.338Z,102058.84
2023-03-27T06:12:48.694Z,102062.91
2023-03-27T06:15:18.726Z,102061.94
2023-03-27T06:17:47.167Z,102068.78
2023-03-27T06:20:13.704Z,102071.06
2023-03-27T06:22:46.659Z,102074.72
2023-03-27T06:25:15.467Z,102075.44
2023-03-27T06:27:50.080Z,102077.59
2023-03-27T06:30:21.320Z,102080.00
2023-03-27T06:32:52.822Z,102088.31
2023-03-27T06:35:21.963Z,102087.56
2023-03-27T06:37:51.638Z,102100.22
2023-03-27T06:40:25.784Z,102102.13
2023-03-27T06:43:00.063Z,102098.53
2023-03-27T06:45:29.696Z,102096.94
2023-03-27T06:48:16.955Z,102106.50
2023-03-27T06:50:52.246Z,102108.91
2023-03-27T06:53:27.449Z,102100.56
2023-03-27T06:55:57.399Z,102110.41
2023-03-27T06:58:25.036Z,102114.13
2023-03-27T07:00:52.871Z,102110.09
2023-03-27T07:03:21.597Z,102113.47
2023-03-27T07:05:48.536Z,102111.34
2023-03-27T07:08:24.714Z,102112.31
2023-03-27T07:13:27.070Z,102118.50
2023-03-27T07:15:55.210Z,102118.69
2023-03-27T07:18:23.342Z,102127.28
2023-03-27T07:20:56.770Z,102132.34
2023-03-27T07:23:25.492Z,102134.94
2023-03-27T07:25:56.878Z,102136.44
2023-03-27T07:28:23.441Z,102135.19
2023-03-27T07:30:53.524Z,102150.00
2023-03-27T07:33:20.662Z,102145.84
2023-03-27T07:35:50.502Z,102147.84
2023-03-27T07:38:19.004Z,102149.63
2023-03-27T07:40:45.690Z,102156.09
2023-03-27T07:43:13.417Z,102148.03
2023-03-27T07:45:44.913Z,102159.16
2023-03-27T07:48:15.390Z,102153.03
2023-03-27T07:50:43.506Z,102148.50
2023-03-27T07:53:10.091Z,102162.47
2023-03-27T07:55:56.582Z,102162.47
2023-03-27T07:58:23.248Z,102165.72
2023-03-27T08:00:59.687Z,102167.22
2023-03-27T08:03:30.954Z,102168.53
2023-03-27T08:06:02.125Z,102175.53
2023-03-27T08:08:29.369Z,102174.06
2023-03-27T08:10:56.010Z,102177.09
2023-03-27T08:13:26.493Z,102174.59
2023-03-27T08:16:02.691Z,102170.81
2023-03-27T08:18:29.467Z,102174.50
2023-03-27T08:20:57.177Z,102178.88
2023-03-27T08:23:29.659Z,102196.09
2023-03-27T08:25:58.821Z,102187.03
2023-03-27T08:28:25.604Z,102195.97
2023-03-27T08:30:51.988Z,102206.22
2023-03-27T08:33:18.396Z,102214.00
2023-03-27T08:35:53.291Z,102216.28
2023-03-27T08:38:26.691Z,102222.44
2023-03-27T08:40:56.009Z,102214.59
2023-03-27T08:43:25.901Z,102212.66
2023-03-27T08:46:05.700Z,102223.94
2023-03-27T08:48:38.300Z,102230.25
2023-03-27T08:51:22.437Z,102226.19
2023-03-27T08:54:00.727Z,102231.47
2023-03-27T08:56:33.359Z,102230.13
2023-03-27T08:59:02.235Z,102240.03
2023-03-27T09:01:41.629Z,102243.69
2023-03-27T09:04:27.270Z,102239.06
2023-03-27T09:07:15.266Z,102250.88
2023-03-27T09:10:25.316Z,102248.06
2023-03-27T09:13:00.940Z,102249.31
2023-03-27T09:15:31.580Z,102251.16
2023-03-27T09:18:12.056Z,102264.88
2023-03-27T09:20:49.953Z,102257.44
2023-03-27T09:23:27.496Z,102255.75
2023-03-27T09:25:59.344Z,102264.53
2023-03-27T09:28:43.161Z,102275.75
2023-03-27T09:31:21.010Z,102302.03
2023-03-27T09:33:50.522Z,102325.09
2023-03-27T09:36:17.072Z,102351.28
2023-03-27T09:38:47.026Z,102370.09
2023-03-27T09:41:22.471Z,102369.22
2023-03-27T09:44:05.074Z,102363.97
2023-03-27T09:46:32.825Z,102357.84
2023-03-27T09:49:05.481Z,102343.19
2023-03-27T09:51:38.561Z,102337.56
2023-03-27T09:54:05.373Z,102331.66
2023-03-27T09:56:40.981Z,102329.94
2023-03-27T09:59:18.935Z,102327.69
2023-03-27T10:01:54.878Z,102324.72
2023-03-27T10:04:23.030Z,102325.88
2023-03-27T10:06:57.623Z,102320.28
2023-03-27T10:09:32.485Z,102320.66
2023-03-27T10:12:08.180Z,102317.34
2023-03-27T10:14:43.484Z,102317.19
2023-03-27T10:17:24.586Z,102311.38
2023-03-27T10:19:54.110Z,102311.81
2023-03-27T10:22:36.457Z,102313.09
2023-03-27T10:25:13.356Z,102318.81
2023-03-27T10:27:39.702Z,102310.19
2023-03-27T10:30:25.840Z,102306.25
2023-03-27T10:32:52.319Z,102302.50
2023-03-27T10:35:42.597Z,102306.44
2023-03-27T10:38:31.630Z,102301.81
2023-03-27T10:40:59.870Z,102304.81
2023-03-27T10:43:52.393Z,102306.50
2023-03-27T10:46:27.385Z,102303.25
2023-03-27T10:49:04.047Z,102331.66
2023-03-27T10:51:56.190Z,102333.66
2023-03-27T10:54:46.385Z,102341.88
2023-03-27T10:57:22.772Z,102340.84
2023-03-27T10:59:58.011Z,102341.44
2023-03-27T11:02:50.434Z,102343.91
2023-03-27T11:05:23.466Z,102329.31
2023-03-27T11:08:04.687Z,102333.78
2023-03-27T11:10:37.604Z,102329.88
2023-03-27T11:13:08.672Z,102327.84
2023-03-27T11:15:49.601Z,102333.34
2023-03-27T11:18:26.542Z,102324.16
2023-03-27T11:21:03.887Z,102333.91
2023-03-27T11:23:40.124Z,102339.03
2023-03-27T11:26:10.832Z,102338.16
2023-03-27T11:28:42.666Z,102344.56
2023-03-27T11:31:43.382Z,102348.59
2023-03-27T11:34:29.013Z,102352.22
2023-03-27T11:37:10.963Z,102363.22
2023-03-27T11:39:47.617Z,102388.00
2023-03-27T11:42:43.527Z,102400.78
2023-03-27T11:45:19.651Z,102415.13
2023-03-27T11:48:29.522Z,102403.69
2023-03-27T11:51:06.670Z,102393.91
2023-03-27T11:54:06.346Z,102402.81
2023-03-27T11:56:35.856Z,102388.94
2023-03-27T11:59:46.340Z,102395.22
2023-03-27T12:02:42.245Z,102400.59
2023-03-27T12:05:14.061Z,102394.66
2023-03-27T12:08:00.055Z,102384.47
2023-03-27T12:10:33.549Z,102383.81
2023-03-27T12:13:10.070Z,102380.38
2023-03-27T12:16:04.582Z,102377.09
2023-03-27T12:18:54.540Z,102372.25
2023-03-27T12:21:45.561Z,102362.66
2023-03-27T12:24:36.334Z,102380.56
2023-03-27T12:27:37.109Z,102397.47
2023-03-27T12:30:27.618Z,102403.44
2023-03-27T12:33:05.980Z,102428.59
2023-03-27T12:35:41.056Z,102443.94
2023-03-27T12:38:28.815Z,102444.69
2023-03-27T12:41:09.278Z,102437.19
2023-03-27T12:43:36.593Z,102447.88
2023-03-27T12:46:23.495Z,102456.78
2023-03-27T12:49:10.323Z,102453.59
2023-03-27T12:51:54.870Z,102454.97
2023-03-27T12:54:25.923Z,102449.00
2023-03-27T12:56:58.913Z,102448.28
2023-03-27T12:59:39.244Z,102442.34
2023-03-27T13:02:05.623Z,102445.88
2023-03-27T13:04:57.344Z,102431.28
2023-03-27T13:07:47.524Z,102428.34
2023-03-27T13:10:56.496Z,102441.03
2023-03-27T13:13:55.106Z,102433.88
2023-03-27T13:16:41.689Z,102424.75
2023-03-27T13:19:29.116Z,102425.91
2023-03-27T13:22:37.013Z,102437.97
2023-03-27T13:25:40.649Z,102427.88
2023-03-27T13:28:21.493Z,102419.53
2023-03-27T13:30:51.254Z,102423.69
2023-03-27T13:33:23.667Z,102421.19
2023-03-27T13:35:58.468Z,102425.63
2023-03-27T13:38:55.944Z,102445.41
2023-03-27T13:41:43.931Z,102456.06
2023-03-27T13:44:40.595Z,102453.28
2023-03-27T13:47:25.398Z,102470.91
2023-03-27T13:50:22.669Z,102465.69
2023-03-27T13:53:08.247Z,102455.22
2023-03-27T13:55:49.986Z,102455.59
2023-03-27T13:58:16.224Z,102450.72
2023-03-27T14:01:20.661Z,102455.50
2023-03-27T14:04:17.710Z,102458.28
2023-03-27T14:07:05.323Z,102449.78
2023-03-27T14:09:53.286Z,102442.75
2023-03-27T14:12:28.807Z,102435.38
2023-03-27T14:15:01.047Z,102441.66
2023-03-27T14:17:49.161Z,102446.19
2023-03-27T14:20:22.555Z,102447.19
2023-03-27T14:23:03.177Z,102454.13
2023-03-27T14:25:36.895Z,102456.63
2023-03-27T14:28:08.104Z,102446.69
2023-03-27T14:30:48.397Z,102452.09
2023-03-27T14:33:18.036Z,102441.78
2023-03-27T14:35:44.494Z,102442.34
2023-03-27T14:38:25.620Z,102438.28
2023-03-27T14:41:04.031Z,102439.41
2023-03-27T14:43:33.134Z,102437.06
2023-03-27T14:46:05.927Z,102442.63
2023-03-27T14:48:35.225Z,102448.56
2023-03-27T14:51:08.422Z,102451.88
2023-03-27T14:53:39.159Z,102449.31
2023-03-27T14:56:16.248Z,102446.50
2023-03-27T14:58:47.862Z,102443.53
2023-03-27T15:01:14.862Z,102445.03
2023-03-27T15:03:45.965Z,102451.28
2023-03-27T15:06:20.125Z,102442.97
2023-03-27T15:08:51.822Z,102456.09
2023-03-27T15:11:23.653Z,102457.19
2023-03-27T15:13:50.041Z,102452.53
2023-03-27T15:16:24.641Z,102471.72
2023-03-27T15:19:01.312Z,102464.22
2023-03-27T15:21:54.327Z,102468.84
2023-03-27T15:24:33.324Z,102473.06
2023-03-27T15:27:00.984Z,102469.19
2023-03-27T15:29:44.270Z,102479.06
2023-03-27T15:32:17.286Z,102493.63
2023-03-27T15:34:47.380Z,102496.00
2023-03-27T15:37:22.860Z,102495.16
2023-03-27T15:40:28.472Z,102500.53
2023-03-27T15:43:06.591Z,102490.00
2023-03-27T15:45:56.581Z,102490.88
2023-03-27T15:48:26.031Z,102505.34
2023-03-27T15:51:06.576Z,102511.94
2023-03-27T15:53:47.625Z,102508.47
2023-03-27T15:56:13.924Z,102507.97
2023-03-27T15:59:02.523Z,102501.72
2023-03-27T16:01:41.776Z,102500.41
2023-03-27T16:04:14.451Z,102514.19
2023-03-27T16:06:44.453Z,102516.78
2023-03-27T16:09:22.900Z,102513.69
2023-03-27T16:11:50.965Z,102517.41
2023-03-27T16:14:32.871Z,102516.38
2023-03-27T16:17:08.245Z,102522.31
2023-03-27T16:19:42.272Z,102514.09
2023-03-27T16:22:10.957Z,102520.00
2023-03-27T16:24:37.289Z,102521.63
2023-03-27T16:27:09.030Z,102526.63
2023-03-27T16:29:36.547Z,102538.22
2023-03-27T16:32:02.961Z,102537.91
2023-03-27T16:34:29.533Z,102553.81
2023-03-27T16:36:58.829Z,102554.50
2023-03-27T16:39:25.304Z,102544.69
2023-03-27T16:41:54.035Z,102549.22
2023-03-27T16:44:23.441Z,102545.31
2023-03-27T16:46:50.039Z,102547.16
2023-03-27T16:49:16.480Z,102552.00
2023-03-27T16:51:42.890Z,102557.53
2023-03-27T16:54:09.274Z,102556.50
2023-03-27T16:56:35.689Z,102565.03
2023-03-27T16:59:02.256Z,102580.25
2023-03-27T17:01:28.697Z,102572.66
2023-03-27T17:03:56.316Z,102580.44
2023-03-27T17:06:22.698Z,102569.19
2023-03-27T17:08:49.043Z,102575.09
2023-03-27T17:11:15.414Z,102579.56
2023-03-27T17:13:44.189Z,102584.56
2023-03-27T17:16:10.663Z,102588.34
2023-03-27T17:18:37.184Z,102603.31
2023-03-27T17:21:06.246Z,102601.78
2023-03-27T17:23:36.329Z,102612.44
2023-03-27T17:26:04.890Z,102604.22
2023-03-27T17:28:32.387Z,102610.38
2023-03-27T17:31:05.137Z,102608.47
2023-03-27T17:33:35.744Z,102613.69
2023-03-27T17:36:08.321Z,102621.69
2023-03-27T17:38:34.796Z,102621.59
2023-03-27T17:41:03.832Z,102625.22
2023-03-27T17:43:30.266Z,102627.34
2023-03-27T17:45:56.794Z,102635.91
2023-03-27T17:48:28.222Z,102635.50
2023-03-27T17:51:08.151Z,102643.72
2023-03-27T17:53:38.394Z,102646.50
2023-03-27T17:56:06.342Z,102649.66
2023-03-27T17:58:33.163Z,102645.13
2023-03-27T18:01:11.310Z,102648.31
2023-03-27T18:03:38.777Z,102647.59
2023-03-27T18:06:07.643Z,102644.31
2023-03-27T18:08:43.611Z,102652.00
2023-03-27T18:11:12.270Z,102653.53
2023-03-27T18:13:43.981Z,102656.41
2023-03-27T18:16:10.982Z,102659.31
2023-03-27T18:18:40.467Z,102660.91
2023-03-27T18:21:07.183Z,102670.66
2023-03-27T18:23:38.369Z,102678.03
2023-03-27T18:26:13.260Z,102668.94
2023-03-27T18:28:39.839Z,102676.47
2023-03-27T18:31:12.700Z,102679.06
2023-03-27T18:33:39.203Z,102683.09
2023-03-27T18:36:06.110Z,102670.06
2023-03-27T18:38:35.316Z,102683.50
2023-03-27T18:41:04.210Z,102683.50
2023-03-27T18:43:31.712Z,102688.41
2023-03-27T18:46:02.148Z,102685.31
2023-03-27T18:48:28.949Z,102683.41
2023-03-27T18:50:56.694Z,102684.22
2023-03-27T18:53:23.800Z,102689.13
2023-03-27T18:55:55.792Z,102683.94
2023-03-27T18:58:24.753Z,102695.06
2023-03-27T19:00:51.276Z,102693.44
2023-03-27T19:03:20.128Z,102697.13
2023-03-27T19:05:47.600Z,102705.59
2023-03-27T19:08:14.855Z,102706.28
2023-03-27T19:10:41.653Z,102715.81
2023-03-27T19:13:07.953Z,102716.19
2023-03-27T19:15:39.986Z,102720.59
2023-03-27T19:18:06.503Z,102720.66
2023-03-27T19:20:37.558Z,102716.13
2023-03-27T19:23:08.794Z,102721.56
2023-03-27T19:25:35.153Z,102714.25
2023-03-27T19:28:05.609Z,102713.94
2023-03-27T19:30:35.784Z,102713.38
2023-03-27T19:33:03.118Z,102705.34
2023-03-27T19:35:29.499Z,102703.53
2023-03-27T19:37:58.308Z,102707.06
2023-03-27T19:40:27.080Z,102704.88
2023-03-27T19:42:53.401Z,102705.81
2023-03-27T19:45:22.162Z,102704.88
2023-03-27T19:47:49.735Z,102704.84
2023-03-27T19:50:16.575Z,102704.78
2023-03-27T19:52:42.916Z,102707.53
2023-03-27T19:55:09.312Z,102699.03
2023-03-27T19:57:35.736Z,102700.19
2023-03-27T20:00:02.286Z,102704.66
2023-03-27T20:02:33.650Z,102708.75
2023-03-27T20:05:00.206Z,102711.88
2023-03-27T20:07:27.724Z,102716.06
2023-03-27T20:09:54.049Z,102712.09
2023-03-27T20:12:22.589Z,102713.53
2023-03-27T20:15:02.901Z,102708.53
2023-03-27T20:17:41.553Z,102715.78
2023-03-27T20:20:08.159Z,102714.13
2023-03-27T20:22:40.659Z,102722.84
2023-03-27T20:25:09.787Z,102725.00
2023-03-27T20:27:36.101Z,102727.69
2023-03-27T20:30:02.420Z,102718.44
2023-03-27T20:32:35.630Z,102729.53
2023-03-27T20:35:07.358Z,102730.41
2023-03-27T20:37:39.465Z,102731.38
2023-03-27T20:40:12.166Z,102734.13
2023-03-27T20:42:38.622Z,102735.09
2023-03-27T20:45:06.129Z,102740.44
2023-03-27T20:47:32.720Z,102731.25
2023-03-27T20:49:59.097Z,102733.94
2023-03-27T20:52:25.531Z,102733.94
2023-03-27T20:54:54.519Z,102735.69
2023-03-27T20:57:20.882Z,102736.59
2023-03-27T20:59:47.723Z,102732.25
2023-03-27T21:02:25.590Z,102736.81
2023-03-27T21:04:52.126Z,102726.13
2023-03-27T21:07:18.524Z,102728.78
2023-03-27T21:09:44.839Z,102728.84
2023-03-27T21:12:13.611Z,102729.06
2023-03-27T21:14:39.955Z,102729.13
2023-03-27T21:17:06.281Z,102731.81
2023-03-27T21:19:32.657Z,102726.63
2023-03-27T21:21:58.996Z,102736.56
2023-03-27T21:24:25.369Z,102732.91
2023-03-27T21:26:51.644Z,102737.53
2023-03-27T21:29:20.345Z,102742.09
2023-03-27T21:31:46.757Z,102741.25
2023-03-27T21:34:13.095Z,102749.53
2023-03-27T21:36:43.068Z,102739.88
2023-03-27T21:39:11.642Z,102742.81
2023-03-27T21:41:37.930Z,102739.56
2023-03-27T21:44:04.334Z,102744.22
2023-03-27T21:46:30.728Z,102748.56
2023-03-27T21:48:57.022Z,102745.09
2023-03-27T21:51:30.698Z,102745.09
2023-03-27T21:53:57.022Z,102747.97
2023-03-27T21:56:23.397Z,102756.03
2023-03-27T21:58:49.671Z,102754.25
2023-03-27T22:01:15.998Z,102759.59
2023-03-27T22:03:42.339Z,102752.72
2023-03-27T22:06:12.877Z,102765.97
2023-03-27T22:08:41.842Z,102766.91
2023-03-27T22:11:09.047Z,102758.78
2023-03-27T22:13:40.073Z,102767.69
2023-03-27T22:16:11.625Z,102769.28
2023-03-27T22:18:40.730Z,102764.72
2023-03-27T22:21:15.998Z,102764.63
2023-03-27T22:23:46.510Z,102765.53
2023-03-27T22:26:26.924Z,102761.22
2023-03-27T22:28:55.772Z,102764.00
2023-03-27T22:31:28.958Z,102765.78
2023-03-27T22:33:55.401Z,102778.31
2023-03-27T22:36:22.433Z,102779.34
2023-03-27T22:38:49.020Z,102782.19
2023-03-27T22:41:15.945Z,102784.00
2023-03-27T22:43:46.158Z,102785.22
2023-03-27T22:46:19.981Z,102783.72
2023-03-27T22:48:54.040Z,102789.22
2023-03-27T22:51:20.432Z,102783.06
2023-03-27T22:53:49.339Z,102793.69
2023-03-27T22:56:15.711Z,102783.06
2023-03-27T22:58:42.059Z,102787.47
2023-03-27T23:01:10.785Z,102784.69
2023-03-27T23:03:37.568Z,102791.94
2023-03-27T23:06:04.561Z,102792.00
2023-03-27T23:08:33.625Z,102798.19
2023-03-27T23:11:05.436Z,102797.38
2023-03-27T23:13:33.892Z,102791.09
2023-03-27T23:16:00.832Z,102797.28
2023-03-27T23:18:27.368Z,102793.81
2023-03-27T23:21:01.873Z,102794.13
2023-03-27T23:23:34.815Z,102798.63
2023-03-27T23:26:02.175Z,102794.38
2023-03-27T23:28:41.750Z,102801.63
2023-03-27T23:31:11.875Z,102800.81
2023-03-27T23:33:52.961Z,102799.13
2023-03-27T23:36:23.676Z,102802.81
2023-03-27T23:38:50.578Z,102814.50
2023-03-27T23:41:16.987Z,102803.75
2023-03-27T23:43:49.040Z,102806.50
2023-03-27T23:46:16.043Z,102802.09
2023-03-27T23:48:43.750Z,102798.56
2023-03-27T23:51:11.806Z,102800.44
2023-03-27T23:53:40.435Z,102797.69
2023-03-27T23:56:07.375Z,102802.13
2023-03-27T23:58:36.098Z,102799.50
